PWSweather.com
Personal Weather Stations
Station Observations
IRIVIRED2
île Maurice, Petit RaffrayMU

île MauricePetit RaffrayMU

Lat: -20.02533, Lon: 57.61883

Elevation: 183

Station Type: Davis Vantage Pro2 plus

http://www.meteomauritius.altervista.org

Latest ConditionsUpdated 2:30:01 PM GMT+04:04 Wednesday, Feb 20, 2019
Currently Today's Max Today's Min Today's Average
Temperature 84.5°F29.2°C 85.6°F29.8°C 78.9°F26.1°C 82.3°F27.9°C
Dew Point 78.0°F25.6°C 79.3°F26.3°C 73.9°F23.3°C 76.9°F24.9°C
Winds 6.9 mph NE11.1 kmh NE 10.4 mph -16.7 kmh - - 4.6 mph 7.4 kmh
Wind Gusts 12.7 mph20.4 kmh 15.0 mph24.1 kmh - -
Humidity 81% 87% 79% 84%
Pressure 30.01 in1016.3 mb 30.07 in1018.3 mb 30.00 in1015.9 mb -
Hour Temp Dew Point Humidity Winds Wind Gusts Pressure Precip Precip Rate Daily Precip Total
02:30 PM 84.5°F29.2°C 78.0°F25.6°C 81% 6.9 mph NE11.1 kmh NE 12.7 mph20.4 kmh 30.01 in1016.3 mb - 0.00 in0.0 mm 0.00 in0.0 mm
02:20 PM 84.7°F29.3°C 77.9°F25.5°C 80% 8.1 mph NE13.0 kmh NE 11.5 mph18.5 kmh 30.01 in1016.3 mb - 0.00 in0.0 mm 0.00 in0.0 mm
02:10 PM 85.0°F29.4°C 78.9°F26.1°C 82% 8.1 mph NE13.0 kmh NE 11.5 mph18.5 kmh 30.02 in1016.6 mb - 0.00 in0.0 mm 0.00 in0.0 mm
02:00 PM 84.6°F29.2°C 78.1°F25.6°C 81% 8.1 mph ENE13.0 kmh ENE 12.7 mph20.4 kmh 30.02 in1016.6 mb - 0.00 in0.0 mm 0.00 in0.0 mm
01:50 PM 85.0°F29.4°C 78.1°F25.6°C 80% 6.9 mph ENE11.1 kmh ENE 13.8 mph22.2 kmh 30.02 in1016.6 mb - 0.00 in0.0 mm 0.00 in0.0 mm
01:40 PM 85.0°F29.4°C 78.5°F25.8°C 81% 5.8 mph NE9.3 kmh NE 8.1 mph13.0 kmh 30.02 in1016.6 mb - 0.00 in0.0 mm 0.00 in0.0 mm
01:30 PM 84.9°F29.4°C 78.4°F25.8°C 81% 9.2 mph NE14.8 kmh NE 11.5 mph18.5 kmh 30.02 in1016.6 mb - 0.00 in0.0 mm 0.00 in0.0 mm
01:20 PM 85.5°F29.7°C 78.2°F25.7°C 79% 9.2 mph NE14.8 kmh NE 13.8 mph22.2 kmh 30.03 in1016.9 mb - 0.00 in0.0 mm 0.00 in0.0 mm
01:10 PM 85.1°F29.5°C 78.6°F25.9°C 81% 6.9 mph NE11.1 kmh NE 11.5 mph18.5 kmh 30.04 in1017.3 mb - 0.00 in0.0 mm 0.00 in0.0 mm
01:00 PM 84.8°F29.3°C 78.3°F25.7°C 81% 8.1 mph ENE13.0 kmh ENE 12.7 mph20.4 kmh 30.05 in1017.6 mb - 0.00 in0.0 mm 0.00 in0.0 mm
12:50 PM 85.6°F29.8°C 78.7°F25.9°C 80% 6.9 mph NE11.1 kmh NE 10.4 mph16.7 kmh 30.05 in1017.6 mb - 0.00 in0.0 mm 0.00 in0.0 mm
12:40 PM 85.4°F29.7°C 78.5°F25.8°C 80% 6.9 mph NE11.1 kmh NE 9.2 mph14.8 kmh 30.05 in1017.6 mb - 0.00 in0.0 mm 0.00 in0.0 mm
12:30 PM 85.4°F29.7°C 79.3°F26.3°C 82% 5.8 mph NE9.3 kmh NE 10.4 mph16.7 kmh 30.05 in1017.6 mb - 0.00 in0.0 mm 0.00 in0.0 mm
12:20 PM 85.3°F29.6°C 78.8°F26.0°C 81% 4.6 mph ENE7.4 kmh ENE 11.5 mph18.5 kmh 30.05 in1017.6 mb - 0.00 in0.0 mm 0.00 in0.0 mm
12:10 PM 85.2°F29.6°C 78.7°F25.9°C 81% 6.9 mph NE11.1 kmh NE 11.5 mph18.5 kmh 30.05 in1017.6 mb - 0.00 in0.0 mm 0.00 in0.0 mm
12:00 PM 85.0°F29.4°C 78.1°F25.6°C 80% 10.4 mph NE16.7 kmh NE 12.7 mph20.4 kmh 30.05 in1017.6 mb - 0.00 in0.0 mm 0.00 in0.0 mm
11:50 AM 85.3°F29.6°C 78.4°F25.8°C 80% 6.9 mph NE11.1 kmh NE 12.7 mph20.4 kmh 30.05 in1017.6 mb - 0.00 in0.0 mm 0.00 in0.0 mm
11:40 AM 85.4°F29.7°C 78.9°F26.1°C 81% 5.8 mph NE9.3 kmh NE 6.9 mph11.1 kmh 30.05 in1017.6 mb - 0.00 in0.0 mm 0.00 in0.0 mm
11:30 AM 85.6°F29.8°C 78.4°F25.8°C 79% 8.1 mph NE13.0 kmh NE 15.0 mph24.1 kmh 30.05 in1017.6 mb - 0.00 in0.0 mm 0.00 in0.0 mm
11:20 AM 85.4°F29.7°C 78.9°F26.1°C 81% 5.8 mph NE9.3 kmh NE 11.5 mph18.5 kmh 30.06 in1017.9 mb - 0.00 in0.0 mm 0.00 in0.0 mm
11:10 AM 85.1°F29.5°C 78.6°F25.9°C 81% 6.9 mph NE11.1 kmh NE 10.4 mph16.7 kmh 30.07 in1018.3 mb - 0.00 in0.0 mm 0.00 in0.0 mm
11:00 AM 85.3°F29.6°C 78.0°F25.6°C 79% 8.1 mph NE13.0 kmh NE 15.0 mph24.1 kmh 30.07 in1018.3 mb - 0.00 in0.0 mm 0.00 in0.0 mm
10:50 AM 85.0°F29.4°C 78.5°F25.8°C 81% 4.6 mph NE7.4 kmh NE 11.5 mph18.5 kmh 30.06 in1017.9 mb - 0.00 in0.0 mm 0.00 in0.0 mm
10:40 AM 85.2°F29.6°C 78.3°F25.7°C 80% 8.1 mph NE13.0 kmh NE 11.5 mph18.5 kmh 30.07 in1018.3 mb - 0.00 in0.0 mm 0.00 in0.0 mm
10:30 AM 85.2°F29.6°C 78.3°F25.7°C 80% 8.1 mph NE13.0 kmh NE 12.7 mph20.4 kmh 30.07 in1018.3 mb - 0.00 in0.0 mm 0.00 in0.0 mm
10:20 AM 84.6°F29.2°C 78.2°F25.7°C 81% 6.9 mph E11.1 kmh E 10.4 mph16.7 kmh 30.07 in1018.3 mb - 0.00 in0.0 mm 0.00 in0.0 mm
10:10 AM 84.6°F29.2°C 77.7°F25.4°C 80% 8.1 mph ENE13.0 kmh ENE 11.5 mph18.5 kmh 30.07 in1018.3 mb - 0.00 in0.0 mm 0.00 in0.0 mm
10:00 AM 84.6°F29.2°C 78.5°F25.8°C 82% 6.9 mph NE11.1 kmh NE 11.5 mph18.5 kmh 30.07 in1018.3 mb - 0.00 in0.0 mm 0.00 in0.0 mm
09:50 AM 84.5°F29.2°C 78.4°F25.8°C 82% 4.6 mph NE7.4 kmh NE 11.5 mph18.5 kmh 30.07 in1018.3 mb - 0.00 in0.0 mm 0.00 in0.0 mm
09:40 AM 84.1°F28.9°C 78.0°F25.6°C 82% 9.2 mph ENE14.8 kmh ENE 12.7 mph20.4 kmh 30.06 in1017.9 mb - 0.00 in0.0 mm 0.00 in0.0 mm
09:30 AM 83.9°F28.8°C 77.8°F25.4°C 82% 10.4 mph ENE16.7 kmh ENE 12.7 mph20.4 kmh 30.06 in1017.9 mb - 0.00 in0.0 mm 0.00 in0.0 mm
09:20 AM 83.7°F28.7°C 78.0°F25.6°C 83% 8.1 mph NE13.0 kmh NE 10.4 mph16.7 kmh 30.06 in1017.9 mb - 0.00 in0.0 mm 0.00 in0.0 mm
09:10 AM 84.1°F28.9°C 78.7°F25.9°C 84% 5.8 mph NE9.3 kmh NE 9.2 mph14.8 kmh 30.06 in1017.9 mb - 0.00 in0.0 mm 0.00 in0.0 mm
09:00 AM 83.9°F28.8°C 78.5°F25.8°C 84% 4.6 mph NE7.4 kmh NE 6.9 mph11.1 kmh 30.06 in1017.9 mb - 0.00 in0.0 mm 0.00 in0.0 mm
08:50 AM 83.4°F28.6°C 78.1°F25.6°C 84% 6.9 mph NE11.1 kmh NE 11.5 mph18.5 kmh 30.06 in1017.9 mb - 0.00 in0.0 mm 0.00 in0.0 mm
08:40 AM 83.6°F28.7°C 78.2°F25.7°C 84% 8.1 mph NE13.0 kmh NE 11.5 mph18.5 kmh 30.06 in1017.9 mb - 0.00 in0.0 mm 0.00 in0.0 mm
08:30 AM 83.7°F28.7°C 78.3°F25.7°C 84% 9.2 mph ENE14.8 kmh ENE 13.8 mph22.2 kmh 30.05 in1017.6 mb - 0.00 in0.0 mm 0.00 in0.0 mm
08:20 AM 83.7°F28.7°C 78.7°F25.9°C 85% 5.8 mph NE9.3 kmh NE 10.4 mph16.7 kmh 30.05 in1017.6 mb - 0.00 in0.0 mm 0.00 in0.0 mm
08:10 AM 83.4°F28.6°C 78.1°F25.6°C 84% 9.2 mph NE14.8 kmh NE 11.5 mph18.5 kmh 30.06 in1017.9 mb - 0.00 in0.0 mm 0.00 in0.0 mm
08:00 AM 82.9°F28.3°C 78.3°F25.7°C 86% 4.6 mph NE7.4 kmh NE 6.9 mph11.1 kmh 30.05 in1017.6 mb - 0.00 in0.0 mm 0.00 in0.0 mm
07:50 AM 82.5°F28.1°C 78.2°F25.7°C 87% 6.9 mph ENE11.1 kmh ENE 10.4 mph16.7 kmh 30.05 in1017.6 mb - 0.00 in0.0 mm 0.00 in0.0 mm
07:40 AM 82.0°F27.8°C 77.8°F25.4°C 87% 3.5 mph NE5.6 kmh NE 3.5 mph5.6 kmh 30.05 in1017.6 mb - 0.00 in0.0 mm 0.00 in0.0 mm
07:30 AM 81.8°F27.7°C 77.5°F25.3°C 87% 2.3 mph ENE3.7 kmh ENE 4.6 mph7.4 kmh 30.04 in1017.3 mb - 0.00 in0.0 mm 0.00 in0.0 mm
07:20 AM 81.7°F27.6°C 77.5°F25.3°C 87% 5.8 mph ENE9.3 kmh ENE 11.5 mph18.5 kmh 30.04 in1017.3 mb - 0.00 in0.0 mm 0.00 in0.0 mm
07:10 AM 81.4°F27.4°C 77.1°F25.1°C 87% 4.6 mph ENE7.4 kmh ENE 6.9 mph11.1 kmh 30.03 in1016.9 mb - 0.00 in0.0 mm 0.00 in0.0 mm
07:00 AM 80.8°F27.1°C 76.6°F24.8°C 87% 4.6 mph NE7.4 kmh NE 9.2 mph14.8 kmh 30.03 in1016.9 mb - 0.00 in0.0 mm 0.00 in0.0 mm
06:50 AM 80.6°F27.0°C 76.3°F24.6°C 87% Calm Calm 3.5 mph5.6 kmh 30.02 in1016.6 mb - 0.00 in0.0 mm 0.00 in0.0 mm
06:40 AM 80.3°F26.8°C 76.1°F24.5°C 87% Calm Calm -- 30.02 in1016.6 mb - 0.00 in0.0 mm 0.00 in0.0 mm
06:30 AM 80.2°F26.8°C 76.0°F24.4°C 87% Calm Calm -- 30.02 in1016.6 mb - 0.00 in0.0 mm 0.00 in0.0 mm
06:20 AM 79.9°F26.6°C 75.7°F24.3°C 87% 3.5 mph E5.6 kmh E 5.8 mph9.3 kmh 30.02 in1016.6 mb - 0.00 in0.0 mm 0.00 in0.0 mm
06:10 AM 79.8°F26.6°C 75.6°F24.2°C 87% 2.3 mph NE3.7 kmh NE 3.5 mph5.6 kmh 30.01 in1016.3 mb - 0.00 in0.0 mm 0.00 in0.0 mm
06:00 AM 79.8°F26.6°C 75.6°F24.2°C 87% 1.2 mph E1.9 kmh E 4.6 mph7.4 kmh 30.01 in1016.3 mb - 0.00 in0.0 mm 0.00 in0.0 mm
05:50 AM 79.7°F26.5°C 75.5°F24.2°C 87% 4.6 mph ENE7.4 kmh ENE 8.1 mph13.0 kmh 30.01 in1016.3 mb - 0.00 in0.0 mm 0.00 in0.0 mm
05:40 AM 79.7°F26.5°C 75.1°F23.9°C 86% 3.5 mph ENE5.6 kmh ENE 4.6 mph7.4 kmh 30.00 in1015.9 mb - 0.00 in0.0 mm 0.00 in0.0 mm
05:30 AM 79.8°F26.6°C 75.2°F24.0°C 86% 2.3 mph ENE3.7 kmh ENE 9.2 mph14.8 kmh 30.00 in1015.9 mb - 0.00 in0.0 mm 0.00 in0.0 mm
05:20 AM 79.9°F26.6°C 75.3°F24.1°C 86% 4.6 mph ENE7.4 kmh ENE 5.8 mph9.3 kmh 30.00 in1015.9 mb - 0.00 in0.0 mm 0.00 in0.0 mm
05:10 AM 79.9°F26.6°C 75.0°F23.9°C 85% 2.3 mph ENE3.7 kmh ENE 5.8 mph9.3 kmh 30.00 in1015.9 mb - 0.00 in0.0 mm 0.00 in0.0 mm
05:00 AM 79.8°F26.6°C 74.9°F23.8°C 85% 3.5 mph ENE5.6 kmh ENE 6.9 mph11.1 kmh 30.00 in1015.9 mb - 0.00 in0.0 mm 0.00 in0.0 mm
04:50 AM 79.7°F26.5°C 74.4°F23.6°C 84% 2.3 mph ENE3.7 kmh ENE 5.8 mph9.3 kmh 30.00 in1015.9 mb - 0.00 in0.0 mm 0.00 in0.0 mm
04:40 AM 79.5°F26.4°C 73.9°F23.3°C 83% 5.8 mph ENE9.3 kmh ENE 10.4 mph16.7 kmh 30.00 in1015.9 mb - 0.00 in0.0 mm 0.00 in0.0 mm
04:30 AM 79.2°F26.2°C 74.3°F23.5°C 85% Calm Calm -- 30.00 in1015.9 mb - 0.00 in0.0 mm 0.00 in0.0 mm
04:20 AM 79.0°F26.1°C 74.5°F23.6°C 86% Calm Calm -- 30.00 in1015.9 mb - 0.00 in0.0 mm 0.00 in0.0 mm
04:10 AM 79.0°F26.1°C 74.8°F23.8°C 87% 2.3 mph E3.7 kmh E 3.5 mph5.6 kmh 30.00 in1015.9 mb - 0.00 in0.0 mm 0.00 in0.0 mm
04:00 AM 78.9°F26.1°C 74.4°F23.6°C 86% Calm Calm 1.2 mph1.9 kmh 30.00 in1015.9 mb - 0.00 in0.0 mm 0.00 in0.0 mm
03:50 AM 78.9°F26.1°C 74.0°F23.3°C 85% 5.8 mph ENE9.3 kmh ENE 9.2 mph14.8 kmh 30.00 in1015.9 mb - 0.00 in0.0 mm 0.00 in0.0 mm
03:40 AM 79.0°F26.1°C 74.1°F23.4°C 85% Calm Calm -- 30.00 in1015.9 mb - 0.00 in0.0 mm 0.00 in0.0 mm
03:30 AM 79.0°F26.1°C 74.5°F23.6°C 86% 1.2 mph ENE1.9 kmh ENE 3.5 mph5.6 kmh 30.00 in1015.9 mb - 0.00 in0.0 mm 0.00 in0.0 mm
03:20 AM 79.3°F26.3°C 74.4°F23.6°C 85% 1.2 mph ENE1.9 kmh ENE 4.6 mph7.4 kmh 30.00 in1015.9 mb - 0.00 in0.0 mm 0.00 in0.0 mm
03:10 AM 79.7°F26.5°C 74.8°F23.8°C 85% Calm Calm -- 30.00 in1015.9 mb - 0.00 in0.0 mm 0.00 in0.0 mm
03:00 AM 79.8°F26.6°C 75.2°F24.0°C 86% Calm Calm -- 30.00 in1015.9 mb - 0.00 in0.0 mm 0.00 in0.0 mm
02:50 AM 80.1°F26.7°C 75.5°F24.2°C 86% Calm Calm -- 30.00 in1015.9 mb - 0.00 in0.0 mm 0.00 in0.0 mm
02:40 AM 80.4°F26.9°C 75.8°F24.3°C 86% 2.3 mph E3.7 kmh E 3.5 mph5.6 kmh 30.01 in1016.3 mb - 0.00 in0.0 mm 0.00 in0.0 mm
02:30 AM 80.4°F26.9°C 75.8°F24.3°C 86% Calm Calm 2.3 mph3.7 kmh 30.01 in1016.3 mb - 0.00 in0.0 mm 0.00 in0.0 mm
02:20 AM 80.5°F26.9°C 75.9°F24.4°C 86% Calm Calm 1.2 mph1.9 kmh 30.01 in1016.3 mb - 0.00 in0.0 mm 0.00 in0.0 mm
02:10 AM 80.5°F26.9°C 75.9°F24.4°C 86% 3.5 mph ENE5.6 kmh ENE 4.6 mph7.4 kmh 30.02 in1016.6 mb - 0.00 in0.0 mm 0.00 in0.0 mm
02:00 AM 80.5°F26.9°C 75.9°F24.4°C 86% 1.2 mph ENE1.9 kmh ENE 4.6 mph7.4 kmh 30.02 in1016.6 mb - 0.00 in0.0 mm 0.00 in0.0 mm
01:50 AM 80.6°F27.0°C 76.3°F24.6°C 87% 3.5 mph ENE5.6 kmh ENE 4.6 mph7.4 kmh 30.02 in1016.6 mb - 0.00 in0.0 mm 0.00 in0.0 mm
01:40 AM 80.7°F27.1°C 76.1°F24.5°C 86% 3.5 mph ENE5.6 kmh ENE 8.1 mph13.0 kmh 30.02 in1016.6 mb - 0.00 in0.0 mm 0.00 in0.0 mm
01:30 AM 80.7°F27.1°C 76.1°F24.5°C 86% 2.3 mph ENE3.7 kmh ENE 4.6 mph7.4 kmh 30.02 in1016.6 mb - 0.00 in0.0 mm 0.00 in0.0 mm
01:20 AM 80.6°F27.0°C 76.0°F24.4°C 86% 3.5 mph NE5.6 kmh NE 9.2 mph14.8 kmh 30.02 in1016.6 mb - 0.00 in0.0 mm 0.00 in0.0 mm
01:10 AM 80.7°F27.1°C 76.1°F24.5°C 86% 3.5 mph E5.6 kmh E 4.6 mph7.4 kmh 30.02 in1016.6 mb - 0.00 in0.0 mm 0.00 in0.0 mm
01:00 AM 80.5°F26.9°C 75.9°F24.4°C 86% 3.5 mph ENE5.6 kmh ENE 8.1 mph13.0 kmh 30.03 in1016.9 mb - 0.00 in0.0 mm 0.00 in0.0 mm
12:50 AM 80.5°F26.9°C 75.6°F24.2°C 85% 3.5 mph ENE5.6 kmh ENE 5.8 mph9.3 kmh 30.03 in1016.9 mb - 0.00 in0.0 mm 0.00 in0.0 mm
12:40 AM 80.5°F26.9°C 75.6°F24.2°C 85% 2.3 mph ENE3.7 kmh ENE 3.5 mph5.6 kmh 30.03 in1016.9 mb - 0.00 in0.0 mm 0.00 in0.0 mm
12:30 AM 80.6°F27.0°C 76.0°F24.4°C 86% Calm Calm 1.2 mph1.9 kmh 30.03 in1016.9 mb - 0.00 in0.0 mm 0.00 in0.0 mm
12:20 AM 80.7°F27.1°C 76.1°F24.5°C 86% 3.5 mph ENE5.6 kmh ENE 5.8 mph9.3 kmh 30.04 in1017.3 mb - 0.00 in0.0 mm 0.00 in0.0 mm
12:10 AM 81.0°F27.2°C 76.5°F24.7°C 86% 2.3 mph ENE3.7 kmh ENE 8.1 mph13.0 kmh 30.04 in1017.3 mb - 0.00 in0.0 mm 0.00 in0.0 mm
12:00 AM 80.9°F27.2°C 76.3°F24.6°C 86% 3.5 mph ENE5.6 kmh ENE 4.6 mph7.4 kmh 30.04 in1017.3 mb - 0.00 in0.0 mm 0.00 in0.0 mm